.
WxDataArchive / Data Records for 2013-05-07
2013-05-06 May 2013 2013-05-08

Data Records for Tuesday, 07 May 2013

Time	Temp	Chill	HIndex	Humid	Dewpt	 Wind 	HiWind	WindDir	Rain 	Barom 
-----	----	-----	------	-----	-----	------	------	-------	-----	----- 
00:00	62.0	62.0	62.0	60	48.0	0	2	68	0.00	29.970 
00:05	61.8	61.8	61.8	61	48.2	0	2	68	0.00	29.970 
00:10	61.6	61.6	61.6	61	48.0	0	2	68	0.00	29.970 
00:15	61.5	61.5	61.5	62	48.4	0	2	68	0.00	29.970 
00:20	61.2	61.2	61.2	62	48.1	0	1	68	0.00	29.970 
00:25	61.0	61.0	61.0	63	48.3	0	0	---	0.00	29.970 
00:30	60.9	60.9	60.9	63	48.2	0	1	68	0.00	29.968 
00:35	60.7	60.7	60.7	63	48.0	0	1	68	0.00	29.968 
00:40	60.7	60.7	60.7	64	48.4	0	1	68	0.00	29.968 
00:45	60.5	60.5	60.5	64	48.3	0	2	68	0.00	29.970 
00:50	60.5	60.5	60.5	63	47.8	0	1	68	0.00	29.970 
00:55	60.4	60.4	60.4	63	47.7	0	2	68	0.00	29.970 
01:00	60.4	60.4	60.4	63	47.7	0	1	68	0.00	29.971 
01:05	60.4	60.4	60.4	63	47.7	0	1	68	0.00	29.971 
01:10	60.4	60.4	60.4	62	47.3	0	2	68	0.00	29.971 
01:15	60.4	60.4	60.4	62	47.3	0	3	68	0.00	29.976 
01:20	60.2	60.2	60.2	62	47.1	1	2	68	0.00	29.976 
01:25	60.2	60.2	60.2	62	47.1	1	3	68	0.00	29.976 
01:30	60.1	60.1	60.1	62	47.0	0	2	68	0.00	29.974 
01:35	60.1	60.1	60.1	62	47.0	0	2	68	0.00	29.974 
01:40	59.9	59.9	59.9	62	46.8	0	2	68	0.00	29.974 
01:45	59.9	59.9	59.9	63	47.3	0	2	68	0.00	29.967 
01:50	59.8	59.8	59.8	64	47.6	0	2	68	0.00	29.967 
01:55	59.6	59.6	59.6	63	47.0	1	4	90	0.00	29.967 
02:00	59.6	59.6	59.6	64	47.4	0	2	90	0.00	29.970 
02:05	59.5	59.5	59.5	63	46.9	0	2	90	0.00	29.970 
02:10	59.5	59.5	59.5	62	46.5	0	2	90	0.00	29.970 
02:15	59.3	59.3	59.3	62	46.3	0	2	90	0.00	29.964 
02:20	59.3	59.3	59.3	62	46.3	0	2	90	0.00	29.964 
02:25	59.2	59.2	59.2	62	46.2	0	2	90	0.00	29.964 
02:30	59.2	59.2	59.2	63	46.6	0	0	---	0.00	29.958 
02:35	59.0	59.0	59.0	63	46.4	0	0	---	0.00	29.958 
02:40	58.9	58.9	58.9	64	46.7	0	0	---	0.00	29.958 
02:45	58.7	58.7	58.7	64	46.6	0	0	---	0.00	29.956 
02:50	58.7	58.7	58.7	63	46.1	0	0	---	0.00	29.956 
02:55	58.6	58.6	58.6	64	46.5	0	0	---	0.00	29.956 
03:00	58.4	58.4	58.4	64	46.3	0	0	---	0.00	29.952 
03:05	58.3	58.3	58.3	64	46.2	0	0	---	0.00	29.952 
03:10	58.0	58.0	58.0	65	46.3	0	0	---	0.00	29.952 
03:15	57.8	57.8	57.8	66	46.5	0	0	---	0.00	29.957 
03:20	57.5	57.5	57.5	66	46.2	0	0	---	0.00	29.957 
03:25	57.3	57.3	57.3	66	46.0	0	0	---	0.00	29.957 
03:30	57.2	57.2	57.2	68	46.7	0	0	---	0.00	29.959 
03:35	56.9	56.9	56.9	68	46.4	0	0	---	0.00	29.959 
03:40	56.7	56.7	56.7	68	46.3	0	0	---	0.00	29.959 
03:45	56.5	56.5	56.5	68	46.1	0	0	---	0.00	29.961 
03:50	56.3	56.3	56.3	68	45.9	0	0	---	0.00	29.961 
03:55	56.2	56.2	56.2	68	45.8	0	0	---	0.00	29.961 
04:00	55.9	55.9	55.9	69	45.9	0	0	---	0.00	29.964 
04:05	55.7	55.7	55.7	69	45.7	0	0	---	0.00	29.964 
04:10	55.6	55.6	55.6	70	46.0	0	0	---	0.00	29.964 
04:15	55.3	55.3	55.3	70	45.7	0	0	---	0.00	29.967 
04:20	55.1	55.1	55.1	71	45.9	0	0	---	0.00	29.967 
04:25	54.8	54.8	54.8	72	45.9	0	0	---	0.00	29.967 
04:30	54.5	54.5	54.5	72	45.7	0	0	---	0.00	29.968 
04:35	54.4	54.4	54.4	73	45.9	0	0	---	0.00	29.968 
04:40	54.1	54.1	54.1	73	45.6	0	0	---	0.00	29.968 
04:45	53.9	53.9	53.9	74	45.8	0	0	---	0.00	29.970 
04:50	53.9	53.9	53.9	76	46.5	0	0	---	0.00	29.970 
04:55	53.9	53.9	53.9	76	46.5	0	0	---	0.00	29.970 
05:00	53.8	53.8	53.8	76	46.4	0	0	---	0.00	29.970 
05:05	53.8	53.8	53.8	76	46.4	0	0	---	0.00	29.970 
05:10	53.8	53.8	53.8	77	46.8	0	0	---	0.00	29.970 
05:15	53.9	53.9	53.9	77	46.9	0	0	---	0.00	29.968 
05:20	53.9	53.9	53.9	77	46.9	0	0	---	0.00	29.968 
05:25	53.9	53.9	53.9	77	46.9	0	0	---	0.00	29.968 
05:30	53.8	53.8	53.8	77	46.8	0	0	---	0.00	29.970 
05:35	53.6	53.6	53.6	77	46.6	0	0	---	0.00	29.970 
05:40	53.5	53.5	53.5	77	46.5	0	0	---	0.00	29.970 
05:45	53.3	53.3	53.3	77	46.3	0	0	---	0.00	29.978 
05:50	53.2	53.2	53.2	77	46.2	0	0	---	0.00	29.978 
05:55	53.1	53.1	53.1	77	46.1	0	0	---	0.00	29.978 
06:00	52.8	52.8	52.8	78	46.1	0	0	---	0.00	29.979 
06:05	52.6	52.6	52.6	78	45.9	0	0	---	0.00	29.979 
06:10	52.3	52.3	52.3	79	46.0	0	0	---	0.00	29.979 
06:15	52.2	52.2	52.2	79	45.9	0	0	---	0.00	29.984 
06:20	52.0	52.0	52.0	80	46.0	0	0	---	0.00	29.984 
06:25	51.9	51.9	51.9	80	45.9	0	0	---	0.00	29.984 
06:30	51.7	51.7	51.7	80	45.7	0	0	---	0.00	29.986 
06:35	51.6	51.6	51.6	80	45.6	0	0	---	0.00	29.986 
06:40	51.4	51.4	51.4	81	45.8	0	0	---	0.00	29.986 
06:45	51.4	51.4	51.4	82	46.1	0	0	---	0.00	29.991 
06:50	51.4	51.4	51.4	82	46.1	0	0	---	0.00	29.991 
06:55	51.4	51.4	51.4	82	46.1	0	0	---	0.00	29.991 
07:00	51.4	51.4	51.4	82	46.1	0	0	---	0.00	30.001 
07:05	51.6	51.6	51.6	81	46.0	0	0	---	0.00	30.001 
07:10	51.6	51.6	51.6	81	46.0	0	0	---	0.00	30.001 
07:15	51.7	51.7	51.7	81	46.1	0	0	---	0.00	30.004 
07:20	52.0	52.0	52.0	80	46.0	0	0	---	0.00	30.004 
07:25	52.2	52.2	52.2	80	46.2	0	0	---	0.00	30.004 
07:30	52.5	52.5	52.5	79	46.2	0	0	---	0.00	30.006 
07:35	52.6	52.6	52.6	78	45.9	0	0	---	0.00	30.006 
07:40	52.9	52.9	52.9	77	45.9	0	0	---	0.00	30.006 
07:45	53.2	53.2	53.2	77	46.2	0	0	---	0.00	30.003 
07:50	53.3	53.3	53.3	77	46.3	0	0	---	0.00	30.003 
07:55	53.5	53.5	53.5	77	46.5	0	0	---	0.00	30.003 
08:00	53.8	53.8	53.8	76	46.4	0	0	---	0.00	30.005 
08:05	53.9	53.9	53.9	76	46.5	0	0	---	0.00	30.005 
08:10	54.4	54.4	54.4	75	46.6	0	2	90	0.00	30.005 
08:15	55.0	55.0	55.0	73	46.5	0	3	90	0.00	30.006 
08:20	55.6	55.6	55.6	71	46.3	1	3	90	0.00	30.006 
08:25	55.9	55.9	55.9	70	46.3	1	4	90	0.00	30.006 
08:30	56.0	56.0	56.0	70	46.4	1	2	90	0.00	30.010 
08:35	56.2	56.2	56.2	71	46.9	0	1	90	0.00	30.010 
08:40	56.3	56.3	56.3	71	47.0	0	0	---	0.00	30.010 
08:45	56.5	56.5	56.5	71	47.2	0	0	---	0.00	30.005 
08:50	56.6	56.6	56.6	70	46.9	0	1	90	0.00	30.005 
08:55	56.9	56.9	56.9	70	47.2	0	1	90	0.00	30.005 
09:00	57.3	57.3	57.3	70	47.6	0	1	90	0.00	30.012 
09:05	57.6	57.6	57.6	69	47.5	0	2	90	0.00	30.012 
09:10	57.8	57.8	57.8	68	47.3	0	2	90	0.00	30.012 
09:15	58.1	58.1	58.1	69	48.0	0	0	---	0.00	30.015 
09:20	58.3	58.3	58.3	68	47.8	0	0	---	0.00	30.015 
09:25	58.6	58.6	58.6	68	48.1	0	1	90	0.00	30.015 
09:30	59.0	59.0	59.0	68	48.5	0	1	90	0.00	30.013 
09:35	59.8	59.8	59.8	67	48.8	0	1	90	0.00	30.013 
09:40	60.4	60.4	60.4	65	48.6	0	1	90	0.00	30.013 
09:45	60.7	60.7	60.7	65	48.9	0	1	90	0.00	30.007 
09:50	61.0	61.0	61.0	65	49.1	0	1	90	0.00	30.007 
09:55	61.5	61.5	61.5	63	48.8	0	2	90	0.00	30.007 
10:00	62.0	62.0	62.0	65	50.1	0	2	90	0.00	30.002 
10:05	62.1	62.1	62.1	63	49.3	0	2	90	0.00	30.002 
10:10	62.6	62.6	62.6	64	50.2	0	2	90	0.00	30.002 
10:15	63.1	63.1	63.1	63	50.3	0	2	90	0.00	30.001 
10:20	63.5	63.5	63.5	63	50.7	1	3	90	0.00	30.001 
10:25	64.2	64.2	64.2	63	51.3	1	3	90	0.00	30.001 
10:30	64.8	64.8	64.8	60	50.6	1	4	90	0.00	30.001 
10:35	65.3	65.3	65.3	60	51.1	1	4	90	0.00	30.001 
10:40	65.6	65.6	65.6	62	52.2	0	3	90	0.00	30.001 
10:45	66.0	66.0	66.0	60	51.7	1	3	90	0.00	29.998 
10:50	66.3	66.3	66.3	61	52.4	0	2	90	0.00	29.998 
10:55	66.0	66.0	66.0	62	52.6	0	3	338	0.00	29.998 
11:00	66.3	66.3	66.3	61	52.4	2	5	112	0.00	29.996 
11:05	66.8	66.8	66.8	61	52.9	1	3	112	0.00	29.996 
11:10	67.3	67.3	67.3	61	53.4	0	1	90	0.00	29.996 
11:15	67.8	67.8	67.8	60	53.4	0	3	90	0.00	29.994 
11:20	68.1	68.1	68.1	60	53.7	1	4	112	0.00	29.994 
11:25	68.1	68.1	68.1	60	53.7	2	6	90	0.00	29.994 
11:30	68.4	68.4	68.4	59	53.5	1	4	90	0.00	29.994 
11:35	68.8	68.8	68.8	58	53.4	1	5	158	0.00	29.994 
11:40	69.4	69.4	69.4	59	54.4	1	4	68	0.00	29.994 
11:45	69.9	69.9	69.9	57	54.0	2	5	90	0.00	29.993 
11:50	69.9	69.9	69.9	57	54.0	3	7	90	0.00	29.993 
11:55	69.9	69.9	69.9	56	53.5	2	9	112	0.00	29.993 
12:00	70.4	70.4	70.4	58	54.9	0	3	338	0.00	29.993 
12:05	70.9	70.9	70.9	57	54.9	0	3	112	0.00	29.993 
12:10	71.1	71.1	71.1	53	53.1	3	5	112	0.00	29.993 
12:15	71.1	71.1	71.1	55	54.1	2	7	90	0.00	29.991 
12:20	70.9	70.9	70.9	54	53.4	2	6	45	0.00	29.991 
12:25	71.1	71.1	71.1	54	53.6	0	3	45	0.00	29.991 
12:30	71.1	71.1	71.1	51	52.0	3	9	112	0.00	29.990 
12:35	70.4	70.4	70.4	55	53.4	1	4	112	0.00	29.990 
12:40	71.1	71.1	71.1	54	53.6	0	3	90	0.00	29.990 
12:45	71.8	71.8	71.8	52	53.2	3	9	90	0.00	29.980 
12:50	71.6	71.6	71.6	49	51.4	2	6	112	0.00	29.980 
12:55	71.3	71.3	71.3	50	51.7	2	9	112	0.00	29.980 
13:00	71.3	71.3	71.3	52	52.8	2	6	112	0.00	29.981 
13:05	71.6	71.6	71.6	51	52.5	1	4	338	0.00	29.981 
13:10	72.3	72.3	72.3	52	53.7	1	6	338	0.00	29.981 
13:15	72.3	72.3	72.3	51	53.1	1	6	338	0.00	29.977 
13:20	72.5	72.5	72.5	50	52.8	1	4	90	0.00	29.977 
13:25	72.8	72.8	72.8	50	53.1	3	10	112	0.00	29.977 
13:30	73.5	73.5	73.5	53	55.3	2	5	68	0.00	29.976 
13:35	73.2	73.2	73.2	46	51.2	2	5	112	0.00	29.976 
13:40	73.0	73.0	73.0	48	52.1	2	7	112	0.00	29.976 
13:45	73.0	73.0	73.0	48	52.1	4	7	112	0.00	29.975 
13:50	72.8	72.8	72.8	50	53.1	2	7	112	0.00	29.975 
13:55	72.8	72.8	72.8	53	54.7	2	6	112	0.00	29.975 
14:00	73.2	73.2	73.2	50	53.4	2	7	112	0.00	29.969 
14:05	73.2	73.2	73.2	50	53.4	2	7	90	0.00	29.969 
14:10	72.8	72.8	72.8	51	53.6	1	5	112	0.00	29.969 
14:15	72.1	72.1	72.1	49	51.9	1	5	112	0.00	29.972 
14:20	71.8	71.8	71.8	52	53.2	2	4	112	0.00	29.972 
14:25	71.5	71.5	71.5	53	53.5	0	2	45	0.00	29.972 
14:30	71.3	71.3	71.3	52	52.8	0	3	45	0.00	29.972 
14:35	71.8	71.8	71.8	51	52.7	1	5	45	0.00	29.972 
14:40	72.1	72.1	72.1	53	54.0	1	4	90	0.00	29.972 
14:45	72.3	72.3	72.3	50	52.6	1	4	90	0.00	29.965 
14:50	72.1	72.1	72.1	50	52.4	1	4	112	0.00	29.965 
14:55	72.1	72.1	72.1	52	53.5	1	3	112	0.00	29.965 
15:00	72.1	72.1	72.1	51	53.0	0	4	90	0.00	29.964 
15:05	72.3	72.3	72.3	51	53.1	1	4	112	0.00	29.964 
15:10	72.5	72.5	72.5	50	52.8	1	6	45	0.00	29.964 
15:15	72.1	72.1	72.1	48	51.3	3	7	90	0.00	29.966 
15:20	72.1	72.1	72.1	50	52.4	3	7	90	0.00	29.966 
15:25	72.1	72.1	72.1	49	51.9	3	7	90	0.00	29.966 
15:30	72.1	72.1	72.1	50	52.4	2	7	112	0.00	29.963 
15:35	72.0	72.0	72.0	49	51.8	2	6	112	0.00	29.963 
15:40	72.0	72.0	72.0	51	52.9	1	4	90	0.00	29.963 
15:45	72.0	72.0	72.0	49	51.8	2	4	90	0.00	29.960 
15:50	72.0	72.0	72.0	47	50.7	3	7	90	0.00	29.960 
15:55	72.0	72.0	72.0	49	51.8	2	7	90	0.00	29.960 
16:00	72.1	72.1	72.1	49	51.9	2	6	90	0.00	29.955 
16:05	72.3	72.3	72.3	48	51.5	3	6	112	0.00	29.955 
16:10	72.5	72.5	72.5	50	52.8	2	5	90	0.00	29.955 
16:15	72.8	72.8	72.8	47	51.4	2	5	90	0.00	29.954 
16:20	73.0	73.0	73.0	46	51.0	3	6	90	0.00	29.954 
16:25	73.2	73.2	73.2	48	52.3	2	4	112	0.00	29.954 
16:30	73.2	73.2	73.2	47	51.7	2	7	112	0.00	29.951 
16:35	73.3	73.3	73.3	48	52.4	2	6	90	0.00	29.951 
16:40	73.2	73.2	73.2	47	51.7	2	6	90	0.00	29.951 
16:45	73.0	73.0	73.0	47	51.6	2	6	112	0.00	29.950 
16:50	73.0	73.0	73.0	47	51.6	1	4	112	0.00	29.950 
16:55	73.0	73.0	73.0	47	51.6	1	6	90	0.00	29.950 
17:00	73.0	73.0	73.0	47	51.6	1	4	90	0.00	29.949 
17:05	72.8	72.8	72.8	47	51.4	1	4	202	0.00	29.949 
17:10	72.8	72.8	72.8	49	52.5	1	3	135	0.00	29.949 
17:15	72.8	72.8	72.8	49	52.5	1	4	112	0.00	29.948 
17:20	72.8	72.8	72.8	47	51.4	2	6	112	0.00	29.948 
17:25	72.8	72.8	72.8	47	51.4	2	5	112	0.00	29.948 
17:30	72.7	72.7	72.7	47	51.3	1	5	112	0.00	29.950 
17:35	72.8	72.8	72.8	49	52.5	0	2	90	0.00	29.950 
17:40	72.8	72.8	72.8	48	52.0	1	7	45	0.00	29.950 
17:45	73.0	73.0	73.0	48	52.1	1	5	112	0.00	29.948 
17:50	72.8	72.8	72.8	47	51.4	1	9	112	0.00	29.948 
17:55	72.7	72.7	72.7	50	53.0	2	4	112	0.00	29.948 
18:00	72.5	72.5	72.5	49	52.2	1	5	90	0.00	29.946 
18:05	72.3	72.3	72.3	48	51.5	1	5	112	0.00	29.946 
18:10	72.7	72.7	72.7	49	52.4	1	4	112	0.00	29.946 
18:15	73.0	73.0	73.0	49	52.7	1	6	90	0.00	29.947 
18:20	73.0	73.0	73.0	46	51.0	3	10	90	0.00	29.947 
18:25	73.0	73.0	73.0	50	53.2	3	6	135	0.00	29.947 
18:30	73.0	73.0	73.0	48	52.1	1	4	135	0.00	29.947 
18:35	73.0	73.0	73.0	48	52.1	1	4	112	0.00	29.947 
18:40	73.2	73.2	73.2	48	52.3	1	3	112	0.00	29.947 
18:45	73.2	73.2	73.2	47	51.7	1	4	112	0.00	29.945 
18:50	73.2	73.2	73.2	47	51.7	1	5	112	0.00	29.945 
18:55	73.2	73.2	73.2	47	51.7	1	5	112	0.00	29.945 
19:00	73.0	73.0	73.0	47	51.6	1	4	90	0.00	29.944 
19:05	73.0	73.0	73.0	49	52.7	1	4	90	0.00	29.944 
19:10	73.0	73.0	73.0	48	52.1	1	5	90	0.00	29.944 
19:15	72.8	72.8	72.8	47	51.4	1	5	90	0.00	29.942 
19:20	72.7	72.7	72.7	48	51.9	1	4	112	0.00	29.942 
19:25	72.5	72.5	72.5	48	51.7	2	6	112	0.00	29.942 
19:30	72.1	72.1	72.1	48	51.3	3	7	90	0.00	29.950 
19:35	72.0	72.0	72.0	49	51.8	3	8	112	0.00	29.950 
19:40	71.5	71.5	71.5	50	51.9	3	7	112	0.00	29.950 
19:45	71.1	71.1	71.1	50	51.5	2	7	90	0.00	29.954 
19:50	70.8	70.8	70.8	51	51.8	1	6	112	0.00	29.954 
19:55	70.4	70.4	70.4	51	51.4	1	6	112	0.00	29.954 
20:00	70.3	70.3	70.3	52	51.8	2	6	112	0.00	29.957 
20:05	70.1	70.1	70.1	51	51.1	2	6	112	0.00	29.957 
20:10	69.8	69.8	69.8	52	51.4	2	5	112	0.00	29.957 
20:15	69.6	69.6	69.6	51	50.7	2	4	90	0.00	29.956 
20:20	69.4	69.4	69.4	53	51.5	1	3	90	0.00	29.956 
20:25	69.1	69.1	69.1	54	51.7	1	3	90	0.00	29.956 
20:30	68.8	68.8	68.8	54	51.5	0	2	90	0.00	29.960 
20:35	68.4	68.4	68.4	54	51.1	0	2	90	0.00	29.960 
20:40	68.1	68.1	68.1	55	51.3	0	1	90	0.00	29.960 
20:45	67.8	67.8	67.8	56	51.5	0	1	90	0.00	29.965 
20:50	67.3	67.3	67.3	57	51.5	0	0	---	0.00	29.965 
20:55	66.9	66.9	66.9	57	51.2	0	0	---	0.00	29.965 
21:00	66.4	66.4	66.4	58	51.2	0	0	---	0.00	29.969 
21:05	66.0	66.0	66.0	59	51.3	0	0	---	0.00	29.969 
21:10	65.5	65.5	65.5	60	51.2	0	0	---	0.00	29.969 
21:15	64.8	64.8	64.8	61	51.0	0	0	---	0.00	29.971 
21:20	64.5	64.5	64.5	62	51.2	0	0	---	0.00	29.971 
21:25	64.2	64.2	64.2	62	50.9	0	0	---	0.00	29.971 
21:30	63.9	63.9	63.9	63	51.1	0	0	---	0.00	29.980 
21:35	63.5	63.5	63.5	63	50.7	0	0	---	0.00	29.980 
21:40	63.2	63.2	63.2	64	50.8	0	0	---	0.00	29.980 
21:45	62.9	62.9	62.9	65	50.9	0	0	---	0.00	29.984 
21:50	62.6	62.6	62.6	65	50.7	0	0	---	0.00	29.984 
21:55	62.4	62.4	62.4	67	51.3	0	0	---	0.00	29.984 
22:00	62.1	62.1	62.1	68	51.4	0	0	---	0.00	29.985 
22:05	62.1	62.1	62.1	68	51.4	0	0	---	0.00	29.985 
22:10	62.0	62.0	62.0	68	51.3	0	0	---	0.00	29.985 
22:15	62.1	62.1	62.1	68	51.4	0	1	90	0.00	29.983 
22:20	62.1	62.1	62.1	68	51.4	0	0	---	0.00	29.983 
22:25	62.3	62.3	62.3	67	51.2	0	1	90	0.00	29.983 
22:30	62.4	62.4	62.4	67	51.3	0	0	---	0.00	29.986 
22:35	62.3	62.3	62.3	67	51.2	0	0	---	0.00	29.986 
22:40	62.1	62.1	62.1	67	51.0	0	0	---	0.00	29.986 
22:45	61.8	61.8	61.8	68	51.1	0	0	---	0.00	29.993 
22:50	61.6	61.6	61.6	69	51.3	0	0	---	0.00	29.993 
22:55	61.3	61.3	61.3	69	51.0	0	0	---	0.00	29.993 
23:00	61.0	61.0	61.0	70	51.1	0	0	---	0.00	29.996 
23:05	61.0	61.0	61.0	70	51.1	0	1	90	0.00	29.996 
23:10	61.0	61.0	61.0	70	51.1	0	1	90	0.00	29.996 
23:15	61.0	61.0	61.0	70	51.1	0	2	90	0.00	29.992 
23:20	61.0	61.0	61.0	71	51.5	0	1	90	0.00	29.992 
23:25	61.0	61.0	61.0	71	51.5	0	1	90	0.00	29.992 
23:30	61.0	61.0	61.0	71	51.5	0	1	90	0.00	29.988 
23:35	61.0	61.0	61.0	71	51.5	0	1	90	0.00	29.988 
23:40	60.9	60.9	60.9	72	51.8	0	0	---	0.00	29.988 
23:45	60.5	60.5	60.5	72	51.4	0	0	---	0.00	29.988 
23:50	60.4	60.4	60.4	73	51.7	0	1	90	0.00	29.988 
23:55	60.2	60.2	60.2	73	51.5	0	0	---	0.00	29.988 

CoCoRaHS
IN-AL-39
A2 Web Hosting
Creative Commons License
GoDaddy
search engine by freefind advanced

loaded 2018-11-15 05:04:03 • last modified 2010-11-18 10:43:29
Privacy PolicyDisclaimer
• wx.awcolley.com is powered by PmWiki v.2002016 •
• all content (unless otherwise noted) © 2018 A W Colley